createdAt,value
2023-04-18T00:00:08.960Z,1019.8
2023-04-18T00:03:09.154Z,1019.9
2023-04-18T00:06:08.970Z,1019.8
2023-04-18T00:09:08.976Z,1019.8
2023-04-18T00:12:08.972Z,1019.9
2023-04-18T00:15:08.971Z,1019.9
2023-04-18T00:18:09.045Z,1019.9
2023-04-18T00:21:08.986Z,1019.9
2023-04-18T00:24:08.974Z,1019.9
2023-04-18T00:27:08.977Z,1019.9
2023-04-18T00:30:09.008Z,1020
2023-04-18T00:33:08.988Z,1019.9
2023-04-18T00:36:08.977Z,1019.9
2023-04-18T00:39:08.977Z,1019.9
2023-04-18T00:42:08.988Z,1019.9
2023-04-18T00:45:08.981Z,1019.9
2023-04-18T00:48:09.095Z,1019.8
2023-04-18T00:51:08.990Z,1019.9
2023-04-18T00:54:08.992Z,1019.9
2023-04-18T00:57:08.986Z,1019.8
2023-04-18T01:00:08.997Z,1019.8
2023-04-18T01:03:09.088Z,1019.9
2023-04-18T01:06:08.983Z,1019.9
2023-04-18T01:09:08.992Z,1019.8
2023-04-18T01:12:09.000Z,1019.8
2023-04-18T01:15:09.009Z,1019.8
2023-04-18T01:18:09.003Z,1019.8
2023-04-18T01:21:08.997Z,1019.8
2023-04-18T01:24:09.016Z,1019.8
2023-04-18T01:27:09.009Z,1019.9
2023-04-18T01:30:09.017Z,1019.9
2023-04-18T01:33:09.013Z,1019.8
2023-04-18T01:36:09.013Z,1019.9
2023-04-18T01:39:09.028Z,1019.8
2023-04-18T01:42:09.039Z,1019.8
2023-04-18T01:45:09.027Z,1019.8
2023-04-18T01:48:09.032Z,1019.9
2023-04-18T01:51:09.036Z,1019.8
2023-04-18T01:54:09.041Z,1019.8
2023-04-18T01:57:09.074Z,1019.8
2023-04-18T02:00:09.045Z,1019.8
2023-04-18T02:03:09.106Z,1019.8
2023-04-18T02:06:09.053Z,1019.8
2023-04-18T02:09:09.068Z,1019.8
2023-04-18T02:12:09.060Z,1019.7
2023-04-18T02:15:09.057Z,1019.8
2023-04-18T02:18:09.062Z,1019.8
2023-04-18T02:21:09.063Z,1019.8
2023-04-18T02:24:09.084Z,1019.8
2023-04-18T02:27:09.080Z,1019.8
2023-04-18T02:30:09.072Z,1019.7
2023-04-18T02:33:09.086Z,1019.8
2023-04-18T02:36:09.091Z,1019.8
2023-04-18T02:39:09.097Z,1019.8
2023-04-18T02:42:09.098Z,1019.8
2023-04-18T02:45:09.095Z,1019.8
2023-04-18T02:48:09.111Z,1019.8
2023-04-18T02:51:09.104Z,1019.8
2023-04-18T02:54:09.104Z,1019.8
2023-04-18T02:57:09.108Z,1019.8
2023-04-18T03:00:09.128Z,1019.9
2023-04-18T03:03:09.144Z,1019.9
2023-04-18T03:06:09.119Z,1019.9
2023-04-18T03:09:09.136Z,1019.9
2023-04-18T03:12:09.126Z,1019.9
2023-04-18T03:15:09.127Z,1019.8
2023-04-18T03:18:09.155Z,1019.9
2023-04-18T03:21:09.139Z,1019.9
2023-04-18T03:24:10.891Z,1019.9
2023-04-18T03:27:09.155Z,1019.9
2023-04-18T03:30:09.152Z,1019.9
2023-04-18T03:33:09.150Z,1020
2023-04-18T03:36:09.159Z,1019.9
2023-04-18T03:39:09.163Z,1019.9
2023-04-18T03:42:09.151Z,1019.9
2023-04-18T03:45:09.157Z,1019.9
2023-04-18T03:48:09.158Z,1020
2023-04-18T03:51:09.166Z,1019.9
2023-04-18T03:54:09.168Z,1019.9
2023-04-18T03:57:09.183Z,1019.9
2023-04-18T04:00:09.184Z,1020
2023-04-18T04:03:09.285Z,1020
2023-04-18T04:06:09.184Z,1020
2023-04-18T04:09:09.186Z,1020
2023-04-18T04:12:09.205Z,1020
2023-04-18T04:15:09.202Z,1020.2
2023-04-18T04:18:09.286Z,1020.2
2023-04-18T04:21:09.201Z,1020.1
2023-04-18T04:24:09.207Z,1020.1
2023-04-18T04:27:09.216Z,1020.2
2023-04-18T04:30:10.282Z,1020.1
2023-04-18T04:33:09.240Z,1020.1
2023-04-18T04:36:09.217Z,1020.3
2023-04-18T04:39:09.222Z,1020.3
2023-04-18T04:42:09.225Z,1020.4
2023-04-18T04:45:09.226Z,1020.4
2023-04-18T04:48:09.300Z,1020.4
2023-04-18T04:51:09.226Z,1020.4
2023-04-18T04:54:09.231Z,1020.4
2023-04-18T04:57:09.251Z,1020.5
2023-04-18T05:00:09.246Z,1020.5
2023-04-18T05:03:09.362Z,1020.4
2023-04-18T05:06:09.253Z,1020.5
2023-04-18T05:09:09.262Z,1020.6
2023-04-18T05:12:09.268Z,1020.7
2023-04-18T05:15:09.265Z,1020.6
2023-04-18T05:18:09.352Z,1020.6
2023-04-18T05:21:09.274Z,1020.7
2023-04-18T05:24:09.279Z,1020.6
2023-04-18T05:27:09.284Z,1020.6
2023-04-18T05:30:09.287Z,1020.6
2023-04-18T05:33:09.294Z,1020.6
2023-04-18T05:36:09.303Z,1020.6
2023-04-18T05:39:09.316Z,1020.7
2023-04-18T05:42:09.318Z,1020.7
2023-04-18T05:45:09.315Z,1020.7
2023-04-18T05:48:09.359Z,1020.7
2023-04-18T05:51:10.566Z,1020.8
2023-04-18T05:54:09.348Z,1020.8
2023-04-18T05:57:09.348Z,1020.8
2023-04-18T06:00:09.353Z,1020.8
2023-04-18T06:03:10.944Z,1020.8
2023-04-18T06:06:09.363Z,1020.8
2023-04-18T06:09:09.376Z,1020.9
2023-04-18T06:12:09.381Z,1020.8
2023-04-18T06:15:09.373Z,1020.9
2023-04-18T06:18:09.396Z,1020.9
2023-04-18T06:21:09.382Z,1020.9
2023-04-18T06:24:09.388Z,1021
2023-04-18T06:27:15.027Z,1021
2023-04-18T06:30:09.400Z,1021.1
2023-04-18T06:33:09.426Z,1021.1
2023-04-18T06:36:09.416Z,1021
2023-04-18T06:39:09.418Z,1021.2
2023-04-18T06:42:09.420Z,1021.2
2023-04-18T06:45:09.429Z,1021.2
2023-04-18T06:48:09.462Z,1021.2
2023-04-18T06:51:09.459Z,1021.2
2023-04-18T06:54:09.444Z,1021.2
2023-04-18T06:57:09.478Z,1021.2
2023-04-18T07:00:09.449Z,1021.2
2023-04-18T07:03:11.053Z,1021.2
2023-04-18T07:06:09.469Z,1021.2
2023-04-18T07:09:09.467Z,1021.2
2023-04-18T07:12:09.472Z,1021.2
2023-04-18T07:15:09.485Z,1021.2
2023-04-18T07:18:09.682Z,1021.2
2023-04-18T07:21:09.491Z,1021.3
2023-04-18T07:24:09.491Z,1021.2
2023-04-18T07:27:09.496Z,1021.2
2023-04-18T07:30:09.503Z,1021.2
2023-04-18T07:33:09.531Z,1021.2
2023-04-18T07:36:09.504Z,1021.2
2023-04-18T07:39:09.512Z,1021.2
2023-04-18T07:42:09.516Z,1021.2
2023-04-18T07:45:09.520Z,1021.2
2023-04-18T07:48:09.571Z,1021.2
2023-04-18T07:51:09.531Z,1021.2
2023-04-18T07:54:09.531Z,1021.2
2023-04-18T07:57:09.537Z,1021.1
2023-04-18T08:00:09.555Z,1021.1
2023-04-18T08:03:09.676Z,1021.1
2023-04-18T08:06:09.550Z,1021.1
2023-04-18T08:09:09.554Z,1021.2
2023-04-18T08:12:09.560Z,1021.1
2023-04-18T08:15:09.564Z,1021.2
2023-04-18T08:18:09.569Z,1021.2
2023-04-18T08:21:09.572Z,1021
2023-04-18T08:24:09.582Z,1021.1
2023-04-18T08:27:09.583Z,1021
2023-04-18T08:30:09.582Z,1021.2
2023-04-18T08:33:09.657Z,1021.2
2023-04-18T08:36:09.595Z,1021.2
2023-04-18T08:39:09.598Z,1021.1
2023-04-18T08:42:09.605Z,1021.2
2023-04-18T08:45:09.597Z,1021.2
2023-04-18T08:48:09.689Z,1021.3
2023-04-18T08:51:09.609Z,1021.2
2023-04-18T08:54:09.613Z,1021.3
2023-04-18T08:57:09.615Z,1021.2
2023-04-18T09:00:09.619Z,1021.3
2023-04-18T09:03:09.649Z,1021.3
2023-04-18T09:06:09.635Z,1021.3
2023-04-18T09:09:09.639Z,1021.2
2023-04-18T09:12:09.645Z,1021.3
2023-04-18T09:15:09.670Z,1021.4
2023-04-18T09:18:09.666Z,1021.4
2023-04-18T09:21:09.655Z,1021.4
2023-04-18T09:24:09.661Z,1021.3
2023-04-18T09:27:09.663Z,1021.3
2023-04-18T09:30:09.668Z,1021.4
2023-04-18T09:33:09.713Z,1021.3
2023-04-18T09:36:09.674Z,1021.3
2023-04-18T09:39:09.679Z,1021.3
2023-04-18T09:42:09.689Z,1021.3
2023-04-18T09:45:09.694Z,1021.3
2023-04-18T09:48:09.734Z,1021.3
2023-04-18T09:51:09.699Z,1021.3
2023-04-18T09:54:09.704Z,1021.2
2023-04-18T09:57:09.709Z,1021.3
2023-04-18T10:00:09.710Z,1021.3
2023-04-18T10:03:09.946Z,1021.3
2023-04-18T10:06:09.714Z,1021.4
2023-04-18T10:09:09.714Z,1021.4
2023-04-18T10:12:09.707Z,1021.4
2023-04-18T10:15:09.756Z,1021.4
2023-04-18T10:18:09.748Z,1021.4
2023-04-18T10:21:09.744Z,1021.4
2023-04-18T10:24:09.739Z,1021.4
2023-04-18T10:27:09.733Z,1021.4
2023-04-18T10:30:09.732Z,1021.3
2023-04-18T10:33:18.298Z,1021.2
2023-04-18T10:36:09.754Z,1021.2
2023-04-18T10:39:09.746Z,1021.3
2023-04-18T10:42:09.753Z,1021.2
2023-04-18T10:45:09.751Z,1021.3
2023-04-18T10:48:09.856Z,1021.2
2023-04-18T10:51:09.764Z,1021.3
2023-04-18T10:54:09.805Z,1021.1
2023-04-18T10:57:09.768Z,1021.2
2023-04-18T11:00:09.801Z,1021.1
2023-04-18T11:03:09.830Z,1021.1
2023-04-18T11:06:09.791Z,1021.1
2023-04-18T11:09:09.798Z,1021.1
2023-04-18T11:12:09.792Z,1021.1
2023-04-18T11:15:09.789Z,1021.1
2023-04-18T11:18:09.839Z,1021.1
2023-04-18T11:21:09.845Z,1021
2023-04-18T11:24:09.796Z,1021
2023-04-18T11:27:09.805Z,1021
2023-04-18T11:30:09.835Z,1021
2023-04-18T11:33:09.843Z,1021.1
2023-04-18T11:36:09.813Z,1021.1
2023-04-18T11:39:09.815Z,1021.1
2023-04-18T11:42:09.849Z,1021.1
2023-04-18T11:45:09.820Z,1021
2023-04-18T11:48:09.879Z,1021
2023-04-18T11:51:09.834Z,1021
2023-04-18T11:54:09.835Z,1021
2023-04-18T11:57:09.834Z,1021
2023-04-18T12:00:09.850Z,1021
2023-04-18T12:03:11.248Z,1020.9
2023-04-18T12:06:09.898Z,1020.9
2023-04-18T12:09:09.853Z,1020.9
2023-04-18T12:12:09.865Z,1021
2023-04-18T12:15:09.866Z,1020.9
2023-04-18T12:18:09.873Z,1020.8
2023-04-18T12:21:09.879Z,1020.8
2023-04-18T12:24:09.886Z,1020.8
2023-04-18T12:27:09.896Z,1020.8
2023-04-18T12:30:09.894Z,1020.8
2023-04-18T12:33:09.909Z,1020.9
2023-04-18T12:36:09.941Z,1020.8
2023-04-18T12:39:09.919Z,1020.9
2023-04-18T12:42:09.933Z,1020.8
2023-04-18T12:45:09.938Z,1020.8
2023-04-18T12:48:09.956Z,1020.8
2023-04-18T12:51:09.954Z,1020.9
2023-04-18T12:54:09.951Z,1020.8
2023-04-18T12:57:09.964Z,1020.8
2023-04-18T13:00:09.977Z,1020.8
2023-04-18T13:03:11.701Z,1020.8
2023-04-18T13:06:09.996Z,1020.7
2023-04-18T13:09:10.008Z,1020.7
2023-04-18T13:12:10.029Z,1020.7
2023-04-18T13:15:10.023Z,1020.6
2023-04-18T13:18:10.030Z,1020.6
2023-04-18T13:21:10.041Z,1020.7
2023-04-18T13:24:10.067Z,1020.7
2023-04-18T13:27:10.056Z,1020.6
2023-04-18T13:30:10.170Z,1020.6
2023-04-18T13:33:10.093Z,1020.7
2023-04-18T13:36:10.082Z,1020.5
2023-04-18T13:39:10.071Z,1020.6
2023-04-18T13:42:10.107Z,1020.6
2023-04-18T13:45:10.119Z,1020.7
2023-04-18T13:48:10.208Z,1020.7
2023-04-18T13:51:10.136Z,1020.6
2023-04-18T13:54:10.128Z,1020.6
2023-04-18T13:57:10.138Z,1020.5
2023-04-18T14:00:10.183Z,1020.6
2023-04-18T14:03:10.296Z,1020.5
2023-04-18T14:06:10.158Z,1020.5
2023-04-18T14:09:10.179Z,1020.5
2023-04-18T14:12:10.187Z,1020.4
2023-04-18T14:15:10.196Z,1020.5
2023-04-18T14:18:10.235Z,1020.5
2023-04-18T14:21:10.292Z,1020.5
2023-04-18T14:24:10.233Z,1020.5
2023-04-18T14:27:10.243Z,1020.4
2023-04-18T14:30:10.265Z,1020.5
2023-04-18T14:33:10.292Z,1020.4
2023-04-18T14:36:10.284Z,1020.5
2023-04-18T14:39:10.284Z,1020.5
2023-04-18T14:42:10.296Z,1020.5
2023-04-18T14:45:10.319Z,1020.5
2023-04-18T14:48:10.474Z,1020.5
2023-04-18T14:51:10.335Z,1020.5
2023-04-18T14:54:10.336Z,1020.5
2023-04-18T14:57:10.370Z,1020.4
2023-04-18T15:00:10.371Z,1020.5
2023-04-18T15:03:11.261Z,1020.4
2023-04-18T15:06:10.364Z,1020.4
2023-04-18T15:09:10.364Z,1020.4
2023-04-18T15:12:10.370Z,1020.4
2023-04-18T15:15:10.372Z,1020.4
2023-04-18T15:18:10.415Z,1020.3
2023-04-18T15:21:10.398Z,1020.3
2023-04-18T15:24:10.404Z,1020.3
2023-04-18T15:27:10.398Z,1020.2
2023-04-18T15:30:10.404Z,1020.2
2023-04-18T15:33:10.480Z,1020.3
2023-04-18T15:36:10.435Z,1020.3
2023-04-18T15:39:10.416Z,1020.3
2023-04-18T15:42:10.420Z,1020.3
2023-04-18T15:45:10.425Z,1020.2
2023-04-18T15:48:10.429Z,1020.3
2023-04-18T15:51:10.431Z,1020.3
2023-04-18T15:54:10.448Z,1020.2
2023-04-18T15:57:10.451Z,1020.3
2023-04-18T16:00:10.451Z,1020.3
2023-04-18T16:03:10.590Z,1020.3
2023-04-18T16:06:10.450Z,1020.3
2023-04-18T16:09:10.466Z,1020.3
2023-04-18T16:12:10.471Z,1020.3
2023-04-18T16:15:10.471Z,1020.3
2023-04-18T16:18:10.481Z,1020.3
2023-04-18T16:21:10.472Z,1020.2
2023-04-18T16:24:10.482Z,1020.3
2023-04-18T16:27:10.487Z,1020.3
2023-04-18T16:30:10.517Z,1020.3
2023-04-18T16:33:10.619Z,1020.4
2023-04-18T16:36:10.505Z,1020.3
2023-04-18T16:39:10.508Z,1020.3
2023-04-18T16:42:10.525Z,1020.3
2023-04-18T16:45:10.518Z,1020.3
2023-04-18T16:48:10.543Z,1020.3
2023-04-18T16:51:10.519Z,1020.2
2023-04-18T16:54:10.537Z,1020.3
2023-04-18T16:57:10.538Z,1020.3
2023-04-18T17:00:10.531Z,1020.2
2023-04-18T17:03:10.580Z,1020.2
2023-04-18T17:06:10.545Z,1020.2
2023-04-18T17:09:10.552Z,1020.3
2023-04-18T17:12:10.566Z,1020.3
2023-04-18T17:15:10.561Z,1020.3
2023-04-18T17:18:10.597Z,1020.3
2023-04-18T17:21:10.567Z,1020.2
2023-04-18T17:24:10.571Z,1020.2
2023-04-18T17:27:10.757Z,1020.2
2023-04-18T17:30:10.588Z,1020.3
2023-04-18T17:33:10.717Z,1020.3
2023-04-18T17:36:10.592Z,1020.3
2023-04-18T17:39:10.588Z,1020.3
2023-04-18T17:42:10.596Z,1020.3
2023-04-18T17:45:10.604Z,1020.4
2023-04-18T17:48:10.634Z,1020.4
2023-04-18T17:51:10.617Z,1020.4
2023-04-18T17:54:10.624Z,1020.4
2023-04-18T17:57:10.635Z,1020.5
2023-04-18T18:00:10.674Z,1020.4
2023-04-18T18:03:10.735Z,1020.5
2023-04-18T18:06:10.642Z,1020.5
2023-04-18T18:09:10.642Z,1020.4
2023-04-18T18:12:10.781Z,1020.5
2023-04-18T18:15:10.661Z,1020.5
2023-04-18T18:18:10.736Z,1020.5
2023-04-18T18:21:10.662Z,1020.6
2023-04-18T18:24:10.681Z,1020.6
2023-04-18T18:27:11.702Z,1020.7
2023-04-18T18:30:10.677Z,1020.6
2023-04-18T18:33:10.686Z,1020.7
2023-04-18T18:36:10.684Z,1020.7
2023-04-18T18:39:10.705Z,1020.8
2023-04-18T18:42:10.694Z,1020.7
2023-04-18T18:45:10.707Z,1020.8
2023-04-18T18:48:10.760Z,1020.9
2023-04-18T18:51:10.718Z,1020.9
2023-04-18T18:54:10.722Z,1020.8
2023-04-18T18:57:10.725Z,1020.9
2023-04-18T19:00:10.728Z,1020.9
2023-04-18T19:03:10.851Z,1020.9
2023-04-18T19:06:10.743Z,1020.9
2023-04-18T19:09:10.745Z,1021
2023-04-18T19:12:10.763Z,1021
2023-04-18T19:15:10.773Z,1020.9
2023-04-18T19:18:10.764Z,1021
2023-04-18T19:21:10.767Z,1021
2023-04-18T19:24:10.768Z,1021.1
2023-04-18T19:27:10.784Z,1021.1
2023-04-18T19:30:10.773Z,1021.1
2023-04-18T19:33:10.785Z,1021.2
2023-04-18T19:36:10.789Z,1021.2
2023-04-18T19:39:10.818Z,1021
2023-04-18T19:42:10.812Z,1020.9
2023-04-18T19:45:10.832Z,1021.1
2023-04-18T19:48:10.922Z,1021.2
2023-04-18T19:51:10.891Z,1021.3
2023-04-18T19:54:10.899Z,1021.1
2023-04-18T19:57:10.893Z,1021.1
2023-04-18T20:00:10.905Z,1021.1
2023-04-18T20:03:10.988Z,1021
2023-04-18T20:06:10.897Z,1021.1
2023-04-18T20:09:10.903Z,1021.1
2023-04-18T20:12:10.902Z,1021.2
2023-04-18T20:15:10.905Z,1021.3
2023-04-18T20:18:10.902Z,1021.3
2023-04-18T20:21:10.992Z,1021.3
2023-04-18T20:24:10.900Z,1021.2
2023-04-18T20:27:10.910Z,1021.3
2023-04-18T20:30:10.918Z,1021.3
2023-04-18T20:33:10.909Z,1021.2
2023-04-18T20:36:10.922Z,1021.3
2023-04-18T20:39:10.905Z,1021.3
2023-04-18T20:42:10.920Z,1021.3
2023-04-18T20:45:11.049Z,1021.1
2023-04-18T20:48:10.918Z,1021.2
2023-04-18T20:51:10.920Z,1021.3
2023-04-18T20:54:10.922Z,1021.4
2023-04-18T20:57:10.913Z,1021.3
2023-04-18T21:00:10.914Z,1021.4
2023-04-18T21:03:11.022Z,1021.4
2023-04-18T21:06:10.917Z,1021.5
2023-04-18T21:09:10.940Z,1021.4
2023-04-18T21:12:10.934Z,1021.4
2023-04-18T21:15:10.937Z,1021.4
2023-04-18T21:18:10.920Z,1021.4
2023-04-18T21:21:10.923Z,1021.3
2023-04-18T21:24:10.929Z,1021.5
2023-04-18T21:27:10.927Z,1021.4
2023-04-18T21:30:10.928Z,1021.4
2023-04-18T21:33:10.959Z,1021.4
2023-04-18T21:36:10.931Z,1021.4
2023-04-18T21:39:10.930Z,1021.3
2023-04-18T21:42:10.933Z,1021.4
2023-04-18T21:45:10.938Z,1021.3
2023-04-18T21:48:10.948Z,1021.4
2023-04-18T21:51:10.934Z,1021.4
2023-04-18T21:54:10.961Z,1021.4
2023-04-18T21:57:10.941Z,1021.3
2023-04-18T22:00:10.938Z,1021.3
2023-04-18T22:03:10.982Z,1021.2
2023-04-18T22:06:10.947Z,1021.3
2023-04-18T22:09:10.954Z,1021.2
2023-04-18T22:12:10.952Z,1021.2
2023-04-18T22:15:10.956Z,1021.2
2023-04-18T22:18:11.013Z,1021.1
2023-04-18T22:21:10.962Z,1021.1
2023-04-18T22:24:10.977Z,1021.1
2023-04-18T22:27:10.973Z,1021.1
2023-04-18T22:30:10.978Z,1021.2
2023-04-18T22:33:10.983Z,1021.1
2023-04-18T22:36:10.974Z,1021.1
2023-04-18T22:39:10.983Z,1021.1
2023-04-18T22:42:10.985Z,1021.1
2023-04-18T22:45:11.002Z,1021.1
2023-04-18T22:48:10.996Z,1021.1
2023-04-18T22:51:10.998Z,1021.2
2023-04-18T22:54:11.027Z,1021.2
2023-04-18T22:57:11.019Z,1021.2
2023-04-18T23:00:11.019Z,1021.2
2023-04-18T23:03:11.135Z,1021.1
2023-04-18T23:06:11.034Z,1021
2023-04-18T23:09:11.063Z,1021.1
2023-04-18T23:12:11.050Z,1021
2023-04-18T23:15:11.063Z,1021.2
2023-04-18T23:18:11.094Z,1021.2
2023-04-18T23:21:11.073Z,1021.2
2023-04-18T23:24:11.090Z,1021.1
2023-04-18T23:27:11.086Z,1021.1
2023-04-18T23:30:11.123Z,1021.2
2023-04-18T23:33:11.130Z,1021.2
2023-04-18T23:36:11.101Z,1021.1
2023-04-18T23:39:11.109Z,1021
2023-04-18T23:42:11.114Z,1021
2023-04-18T23:45:11.137Z,1021
2023-04-18T23:48:11.139Z,1021
2023-04-18T23:51:11.140Z,1021
2023-04-18T23:54:11.177Z,1021
2023-04-18T23:57:11.154Z,1021
